Time;durP1;ratioP1;P1;durP2;ratioP2;P2;SDS_P1;SDS_P2;PMS_P1;PMS_P2;Temp;Humidity;BMP_temperature;BMP_pressure;BME280_temperature;BME280_humidity;BME280_pressure;Samples;Min_cycle;Max_cycle;Signal;HPM_P1;HPM_P2
2022/06/20 00:02:02;;;;;;;11.90;5.15;;;15.60;99.90;;;;;;5002548;28;20361;-60
2022/06/20 00:04:28;;;;;;;13.00;5.28;;;15.60;99.90;;;;;;5005376;28;20022;-59
2022/06/20 00:06:54;;;;;;;11.77;5.88;;;15.60;99.90;;;;;;5008896;28;20502;-59
2022/06/20 00:09:19;;;;;;;20.95;7.75;;;15.50;99.90;;;;;;5007115;28;20026;-61
2022/06/20 00:11:49;;;;;;;13.95;6.38;;;15.50;99.90;;;;;;5008175;28;20025;-58
2022/06/20 00:14:18;;;;;;;10.93;5.70;;;15.50;99.90;;;;;;5009187;28;20022;-60
2022/06/20 00:16:44;;;;;;;15.82;6.82;;;15.60;99.90;;;;;;5006129;28;20122;-60
2022/06/20 00:19:11;;;;;;;17.27;6.18;;;15.50;99.90;;;;;;5009363;28;20064;-60
2022/06/20 00:21:38;;;;;;;18.17;6.78;;;15.50;99.90;;;;;;4983377;28;20042;-60
2022/06/20 00:24:04;;;;;;;17.42;6.90;;;15.50;99.90;;;;;;4991172;28;20057;-60
2022/06/20 00:26:30;;;;;;;24.48;9.35;;;15.50;99.90;;;;;;5003665;28;20744;-59
2022/06/20 00:28:56;;;;;;;12.32;6.35;;;15.40;99.90;;;;;;5000274;28;20029;-59
2022/06/20 00:31:23;;;;;;;13.68;5.93;;;15.40;99.90;;;;;;4995832;28;20025;-60
2022/06/20 00:33:49;;;;;;;15.45;6.70;;;15.40;99.90;;;;;;5002869;28;20042;-59
2022/06/20 00:36:15;;;;;;;16.42;7.55;;;15.50;99.90;;;;;;4998587;28;20022;-59
2022/06/20 00:38:42;;;;;;;15.65;7.95;;;15.50;99.90;;;;;;5006284;28;20049;-59
2022/06/20 00:41:15;;;;;;;12.70;6.35;;;15.50;99.90;;;;;;5008408;28;20034;-60
2022/06/20 00:43:46;;;;;;;14.23;7.15;;;15.50;99.90;;;;;;4999807;28;20029;-60
2022/06/20 00:46:27;;;;;;;16.30;8.43;;;15.50;99.90;;;;;;5004008;28;20017;-60
2022/06/20 00:49:01;;;;;;;14.40;6.70;;;15.50;99.90;;;;;;5018411;28;20018;-58
2022/06/20 00:52:05;;;;;;;16.42;7.32;;;15.50;99.90;;;;;;5009605;28;20029;-57
2022/06/20 00:54:39;;;;;;;14.25;7.90;;;15.50;99.90;;;;;;4985590;28;20630;-61
2022/06/20 00:57:17;;;;;;;17.58;7.60;;;15.40;99.90;;;;;;5005963;28;20038;-60
2022/06/20 00:59:59;;;;;;;15.50;8.70;;;15.40;99.90;;;;;;5009648;28;20942;-59
2022/06/20 01:02:30;;;;;;;17.92;10.13;;;15.50;99.90;;;;;;5003392;28;20033;-59
2022/06/20 01:05:00;;;;;;;15.00;9.55;;;15.40;99.90;;;;;;4998012;28;20470;-59
2022/06/20 01:07:40;;;;;;;20.63;10.63;;;15.40;99.90;;;;;;5002945;28;20026;-60
2022/06/20 01:10:10;;;;;;;23.52;11.13;;;15.30;99.90;;;;;;5001933;28;20014;-58
2022/06/20 01:13:01;;;;;;;24.00;11.90;;;15.20;99.90;;;;;;5005187;28;20066;-58
2022/06/20 01:15:35;;;;;;;21.52;12.02;;;15.20;99.90;;;;;;5003849;28;20147;-60
2022/06/20 01:18:02;;;;;;;;;;;15.20;99.90;;;;;;5008187;28;20045;-60
2022/06/20 01:20:31;;;;;;;23.73;10.70;;;15.20;99.90;;;;;;4989059;28;19955;-59
2022/06/20 01:23:08;;;;;;;23.90;11.95;;;15.20;99.90;;;;;;5007334;28;20050;-59
2022/06/20 01:26:28;;;;;;;30.88;13.30;;;15.20;99.90;;;;;;5002999;28;20030;-60
2022/06/20 01:28:59;;;;;;;23.30;12.05;;;15.20;99.90;;;;;;4986917;28;20092;-61
2022/06/20 01:31:29;;;;;;;27.85;13.68;;;15.20;99.90;;;;;;4998810;28;20177;-60
2022/06/20 01:33:58;;;;;;;26.08;13.25;;;15.20;99.90;;;;;;5005339;28;20035;-59
2022/06/20 01:39:13;;;;;;;24.98;14.23;;;15.10;99.90;;;;;;5003966;28;20411;-59
2022/06/20 01:44:23;;;;;;;41.72;14.80;;;15.00;99.90;;;;;;5005322;28;20046;-59
2022/06/20 01:46:49;;;;;;;22.00;15.23;;;14.90;99.90;;;;;;5004082;28;20022;-56
2022/06/20 01:49:20;;;;;;;27.45;14.02;;;14.90;99.90;;;;;;5008242;28;20053;-60
2022/06/20 01:51:56;;;;;;;23.63;13.73;;;14.90;99.90;;;;;;5003265;28;20029;-60
2022/06/20 01:54:25;;;;;;;29.85;14.52;;;14.90;99.90;;;;;;4995805;28;20381;-60
2022/06/20 01:56:52;;;;;;;18.58;12.82;;;14.90;99.90;;;;;;5000717;28;20571;-60
2022/06/20 01:59:26;;;;;;;24.17;12.70;;;15.00;99.90;;;;;;5001263;28;20503;-59
2022/06/20 02:01:53;;;;;;;24.88;13.25;;;14.90;99.90;;;;;;5005133;28;20030;-58
2022/06/20 02:04:24;;;;;;;24.00;12.82;;;14.90;99.90;;;;;;4999612;28;20030;-57
2022/06/20 02:06:51;;;;;;;22.23;13.13;;;14.80;99.90;;;;;;5003154;28;20049;-58
2022/06/20 02:09:17;;;;;;;20.70;13.18;;;14.70;99.90;;;;;;5000827;28;20029;-58
2022/06/20 02:11:45;;;;;;;17.83;14.20;;;14.70;99.90;;;;;;4999276;28;20018;-55
2022/06/20 02:14:45;;;;;;;23.60;13.35;;;14.60;99.90;;;;;;4998652;28;20038;-57
2022/06/20 02:17:22;;;;;;;21.73;13.32;;;14.60;99.90;;;;;;5003294;28;20065;-57
2022/06/20 02:19:51;;;;;;;29.05;14.50;;;14.50;99.90;;;;;;5003487;28;20037;-57
2022/06/20 02:22:19;;;;;;;27.45;14.77;;;14.40;99.90;;;;;;4989819;28;20053;-59
2022/06/20 02:24:48;;;;;;;26.48;17.65;;;14.30;99.90;;;;;;5005952;28;20044;-58
2022/06/20 02:27:33;;;;;;;25.95;17.05;;;14.10;99.90;;;;;;5008042;28;20026;-57
2022/06/20 02:30:01;;;;;;;28.45;20.65;;;14.00;99.90;;;;;;5005588;28;20179;-57
2022/06/20 02:32:33;;;;;;;30.63;16.90;;;13.90;99.90;;;;;;5010125;28;20064;-57
2022/06/20 02:34:59;;;;;;;24.00;15.32;;;13.90;99.90;;;;;;4994862;28;20030;-57
2022/06/20 02:37:26;;;;;;;19.13;13.18;;;13.80;99.90;;;;;;5008104;28;20032;-56
2022/06/20 02:39:57;;;;;;;22.42;14.02;;;13.70;99.90;;;;;;5010957;28;20575;-57
2022/06/20 02:42:33;;;;;;;25.17;13.48;;;13.70;99.90;;;;;;5009645;28;20038;-57
2022/06/20 02:45:00;;;;;;;21.77;13.32;;;13.70;99.90;;;;;;4996575;28;20546;-57
2022/06/20 02:47:26;;;;;;;19.73;12.73;;;13.70;99.90;;;;;;5006089;28;20103;-60
2022/06/20 02:49:55;;;;;;;19.08;12.10;;;13.60;99.90;;;;;;5011201;28;20048;-58
2022/06/20 02:52:28;;;;;;;14.35;10.98;;;13.70;99.90;;;;;;5010100;28;20602;-51
2022/06/20 02:54:54;;;;;;;10.77;8.07;;;13.60;99.90;;;;;;5009689;28;20033;-56
2022/06/20 02:57:31;;;;;;;15.40;8.75;;;13.60;99.90;;;;;;5007446;28;20100;-55
2022/06/20 03:00:00;;;;;;;10.57;8.70;;;13.60;99.90;;;;;;5001409;28;20053;-57
2022/06/20 03:02:32;;;;;;;19.20;9.73;;;13.50;99.90;;;;;;5008983;28;20038;-57
2022/06/20 03:04:58;;;;;;;19.38;9.80;;;13.50;99.90;;;;;;5006949;28;20088;-57
2022/06/20 03:07:27;;;;;;;19.90;12.55;;;13.50;99.90;;;;;;5006384;28;20033;-58
2022/06/20 03:09:58;;;;;;;27.48;12.30;;;13.50;99.90;;;;;;5007147;28;20025;-58
2022/06/20 03:12:24;;;;;;;20.52;12.10;;;13.50;99.90;;;;;;5008015;28;20092;-58
2022/06/20 03:14:53;;;;;;;13.57;9.43;;;13.60;99.90;;;;;;5001815;28;20042;-58
2022/06/20 03:17:22;;;;;;;15.73;10.43;;;13.50;99.90;;;;;;5008138;28;20036;-57
2022/06/20 03:19:51;;;;;;;15.50;9.80;;;13.60;99.90;;;;;;5002691;28;20030;-58
2022/06/20 03:22:21;;;;;;;14.10;8.43;;;13.60;99.90;;;;;;4988510;28;20530;-59
2022/06/20 03:24:50;;;;;;;11.68;8.70;;;13.60;99.90;;;;;;5001967;28;20092;-58
2022/06/20 03:27:23;;;;;;;14.57;9.60;;;13.70;99.90;;;;;;5009685;28;20413;-58
2022/06/20 03:29:54;;;;;;;21.17;11.95;;;13.70;99.90;;;;;;5006688;28;20072;-58
2022/06/20 03:32:24;;;;;;;19.52;12.90;;;13.70;99.90;;;;;;5008518;28;20125;-58
2022/06/20 03:34:51;;;;;;;19.25;12.98;;;13.70;99.90;;;;;;5001392;28;20515;-57
2022/06/20 03:37:17;;;;;;;17.65;11.98;;;13.80;99.90;;;;;;5006160;28;20033;-58
2022/06/20 03:39:46;;;;;;;20.92;13.27;;;13.80;99.90;;;;;;5008428;28;20033;-58
2022/06/20 03:42:12;;;;;;;20.20;12.88;;;13.80;99.90;;;;;;5008151;28;20104;-57
2022/06/20 03:44:46;;;;;;;20.80;12.52;;;13.90;99.90;;;;;;5005268;28;20083;-56
2022/06/20 03:47:34;;;;;;;20.38;12.32;;;13.90;99.90;;;;;;5005899;28;20771;-57
2022/06/20 03:50:05;;;;;;;21.05;12.80;;;13.90;99.90;;;;;;5007007;28;20034;-57
2022/06/20 03:52:39;;;;;;;23.35;11.20;;;13.90;99.90;;;;;;5009518;28;20108;-59
2022/06/20 03:55:09;;;;;;;18.60;11.85;;;13.90;99.90;;;;;;5005519;28;20546;-58
2022/06/20 03:57:49;;;;;;;19.98;12.27;;;13.80;99.90;;;;;;5006274;28;20053;-59
2022/06/20 04:00:25;;;;;;;18.95;13.18;;;13.90;99.90;;;;;;5007433;28;20029;-59
2022/06/20 04:03:01;;;;;;;32.28;16.98;;;13.80;99.90;;;;;;5007079;28;20078;-59
2022/06/20 04:05:36;;;;;;;26.45;15.43;;;13.80;99.90;;;;;;5005645;28;20029;-58
2022/06/20 04:08:17;;;;;;;28.80;16.02;;;13.90;99.90;;;;;;5016391;28;20034;-59
2022/06/20 04:10:59;;;;;;;27.52;16.23;;;13.90;99.90;;;;;;5005089;28;20080;-59
2022/06/20 04:13:50;;;;;;;26.02;15.25;;;13.90;99.90;;;;;;5004252;28;20053;-59
2022/06/20 04:16:24;;;;;;;26.88;16.92;;;13.90;99.90;;;;;;5006057;28;20061;-56
2022/06/20 04:19:01;;;;;;;31.52;17.50;;;13.90;99.90;;;;;;5003824;28;20034;-59
2022/06/20 04:21:38;;;;;;;30.83;19.70;;;13.90;99.90;;;;;;4988534;28;20050;-59
2022/06/20 04:24:17;;;;;;;35.95;20.75;;;13.90;99.90;;;;;;5006889;28;20479;-58
2022/06/20 04:26:46;;;;;;;47.55;23.00;;;13.90;99.90;;;;;;5009436;28;20034;-58
2022/06/20 04:29:30;;;;;;;41.00;22.27;;;14.00;99.90;;;;;;5010220;28;20044;-59
2022/06/20 04:31:59;;;;;;;;;;;14.00;99.90;;;;;;5008851;28;20036;-58
2022/06/20 04:34:39;;;;;;;38.47;21.23;;;14.00;99.90;;;;;;4996651;28;19905;-58
2022/06/20 04:37:16;;;;;;;26.38;18.30;;;14.00;99.90;;;;;;5008120;28;20067;-59
2022/06/20 04:40:03;;;;;;;32.90;17.17;;;13.90;99.90;;;;;;5002567;28;20018;-59
2022/06/20 04:42:31;;;;;;;30.90;19.45;;;13.90;99.90;;;;;;5005861;28;20022;-59
2022/06/20 04:45:05;;;;;;;32.70;19.52;;;13.90;99.90;;;;;;5005502;28;20029;-59
2022/06/20 04:47:52;;;;;;;31.42;20.25;;;13.80;99.90;;;;;;4997269;28;20125;-58
2022/06/20 04:50:21;;;;;;;28.08;18.65;;;13.80;99.90;;;;;;4994692;28;20114;-57
2022/06/20 04:52:50;;;;;;;27.08;20.42;;;13.80;99.90;;;;;;4997570;28;20026;-57
2022/06/20 04:55:19;;;;;;;31.65;21.50;;;13.70;99.90;;;;;;4994991;28;20464;-58
2022/06/20 04:57:46;;;;;;;29.48;20.02;;;13.70;99.90;;;;;;5005757;28;20053;-58
2022/06/20 05:00:36;;;;;;;28.65;20.45;;;13.70;99.90;;;;;;5004579;28;20430;-58
2022/06/20 05:03:02;;;;;;;24.60;18.80;;;13.70;99.90;;;;;;5008295;28;20092;-59
2022/06/20 05:05:33;;;;;;;28.50;19.65;;;13.70;99.90;;;;;;5003563;28;20044;-58
2022/06/20 05:08:02;;;;;;;28.63;20.50;;;13.70;99.90;;;;;;5006570;28;20018;-58
2022/06/20 05:10:33;;;;;;;26.10;20.70;;;13.70;99.90;;;;;;5008799;28;20474;-58
2022/06/20 05:13:04;;;;;;;33.63;23.25;;;13.70;99.90;;;;;;5006741;28;20056;-55
2022/06/20 05:15:42;;;;;;;33.72;24.27;;;13.60;99.90;;;;;;5002844;28;20030;-59
2022/06/20 05:18:45;;;;;;;35.50;24.50;;;13.60;99.90;;;;;;5003537;28;20109;-58
2022/06/20 05:21:18;;;;;;;31.08;23.02;;;13.50;99.90;;;;;;4964723;28;20035;-55
2022/06/20 05:23:47;;;;;;;28.25;21.75;;;13.50;99.90;;;;;;4983482;28;20042;-59
2022/06/20 05:26:19;;;;;;;25.80;20.40;;;13.50;99.90;;;;;;5008581;28;20060;-58
2022/06/20 05:28:47;;;;;;;23.80;18.80;;;13.40;99.90;;;;;;5004673;28;20027;-58
2022/06/20 05:31:19;;;;;;;21.08;17.60;;;13.50;99.90;;;;;;5007437;28;20499;-59
2022/06/20 05:34:02;;;;;;;24.20;18.80;;;13.50;99.90;;;;;;5010344;28;20038;-59
2022/06/20 05:36:39;;;;;;;28.38;17.90;;;13.40;99.90;;;;;;5006703;28;20033;-58
2022/06/20 05:39:10;;;;;;;22.65;18.35;;;13.50;99.90;;;;;;4997953;28;20065;-57
2022/06/20 05:41:36;;;;;;;22.02;18.13;;;13.40;99.90;;;;;;5005475;28;20022;-60
2022/06/20 05:44:04;;;;;;;25.15;18.63;;;13.50;99.90;;;;;;5011149;28;20041;-57
2022/06/20 05:46:49;;;;;;;23.23;17.85;;;13.40;99.90;;;;;;5006871;28;20034;-57
2022/06/20 05:49:26;;;;;;;20.33;17.20;;;13.50;99.90;;;;;;5008395;28;20036;-60
2022/06/20 05:51:54;;;;;;;22.88;16.80;;;13.50;99.90;;;;;;5011617;28;20022;-58
2022/06/20 05:54:27;;;;;;;16.83;14.48;;;13.60;99.90;;;;;;5006400;28;20030;-58
2022/06/20 05:57:02;;;;;;;21.50;16.10;;;13.60;99.90;;;;;;5005687;28;20034;-57
2022/06/20 05:59:27;;;;;;;18.40;15.40;;;13.50;99.90;;;;;;5011960;28;20034;-60
2022/06/20 06:01:58;;;;;;;20.95;16.10;;;13.50;99.90;;;;;;5011339;28;20040;-59
2022/06/20 06:04:38;;;;;;;19.45;15.57;;;13.60;99.90;;;;;;5004575;28;20088;-57
2022/06/20 06:07:08;;;;;;;20.48;15.30;;;13.60;99.90;;;;;;5010864;28;20574;-59
2022/06/20 06:09:59;;;;;;;18.27;14.55;;;13.70;99.90;;;;;;5009525;28;20029;-58
2022/06/20 06:12:35;;;;;;;19.75;15.73;;;13.70;99.90;;;;;;5011687;28;20148;-57
2022/06/20 06:15:05;;;;;;;21.75;14.75;;;13.80;99.90;;;;;;5009499;28;20025;-59
2022/06/20 06:17:41;;;;;;;23.50;14.48;;;13.80;99.90;;;;;;4998293;28;20076;-57
2022/06/20 06:20:20;;;;;;;17.67;14.30;;;13.80;99.90;;;;;;4998542;28;20029;-59
2022/06/20 06:22:49;;;;;;;18.30;14.20;;;13.80;99.90;;;;;;4985480;28;20046;-59
2022/06/20 06:25:24;;;;;;;20.38;15.48;;;13.80;99.90;;;;;;5000507;28;20089;-59
2022/06/20 06:27:54;;;;;;;18.13;14.10;;;13.90;99.90;;;;;;4998644;28;20084;-58
2022/06/20 06:30:25;;;;;;;20.90;14.48;;;13.90;99.90;;;;;;5000599;28;20110;-60
2022/06/20 06:32:54;;;;;;;20.40;14.57;;;14.00;99.90;;;;;;5003610;28;20025;-60
2022/06/20 06:35:40;;;;;;;19.70;13.95;;;14.00;99.90;;;;;;4996143;28;20088;-59
2022/06/20 06:38:28;;;;;;;19.13;15.07;;;14.00;99.90;;;;;;5009032;28;20041;-59
2022/06/20 06:40:56;;;;;;;16.73;12.77;;;14.00;99.90;;;;;;5009179;28;20026;-59
2022/06/20 06:43:41;;;;;;;20.50;12.93;;;14.10;99.90;;;;;;5011072;28;20400;-59
2022/06/20 06:46:14;;;;;;;15.07;12.60;;;14.20;99.90;;;;;;5007493;28;20084;-60
2022/06/20 06:48:48;;;;;;;16.92;13.25;;;14.20;99.90;;;;;;5004354;28;20026;-59
2022/06/20 06:51:30;;;;;;;17.90;14.20;;;14.20;99.90;;;;;;5011018;28;20021;-59
2022/06/20 06:54:03;;;;;;;17.65;12.65;;;14.10;99.90;;;;;;5007493;28;20595;-57
2022/06/20 06:56:59;;;;;;;15.23;13.05;;;14.10;99.90;;;;;;5008335;28;20121;-58
2022/06/20 06:59:33;;;;;;;16.58;13.20;;;14.00;99.90;;;;;;4993030;28;20035;-57
2022/06/20 07:02:02;;;;;;;17.52;12.98;;;14.10;99.90;;;;;;5008909;28;20472;-59
2022/06/20 07:04:39;;;;;;;16.40;12.55;;;14.00;99.90;;;;;;5007489;28;20057;-58
2022/06/20 07:07:14;;;;;;;14.55;12.68;;;14.00;99.90;;;;;;5001959;28;20438;-59
2022/06/20 07:09:49;;;;;;;13.70;12.20;;;14.10;99.90;;;;;;5002218;28;20030;-58
2022/06/20 07:12:33;;;;;;;14.60;11.43;;;14.00;99.90;;;;;;5006470;28;20395;-59
2022/06/20 07:15:05;;;;;;;14.30;11.00;;;14.00;99.90;;;;;;5010781;28;20030;-59
2022/06/20 07:17:42;;;;;;;13.95;11.38;;;14.00;99.90;;;;;;5004389;28;20121;-59
2022/06/20 07:20:09;;;;;;;15.00;11.93;;;14.00;99.90;;;;;;5001976;28;20091;-58
2022/06/20 07:22:38;;;;;;;16.90;11.25;;;14.00;99.90;;;;;;4993734;28;20125;-59
2022/06/20 07:25:04;;;;;;;17.60;12.07;;;14.00;99.90;;;;;;5005823;28;20036;-57
2022/06/20 07:27:39;;;;;;;15.70;11.90;;;14.00;99.90;;;;;;5000892;28;20037;-57
2022/06/20 07:30:15;;;;;;;19.08;11.85;;;14.00;99.90;;;;;;5009169;28;20026;-57
2022/06/20 07:32:52;;;;;;;21.17;13.38;;;13.80;99.90;;;;;;5008541;28;20028;-59
2022/06/20 07:35:32;;;;;;;16.60;10.98;;;13.80;99.90;;;;;;5000034;28;20031;-59
2022/06/20 07:38:34;;;;;;;12.88;10.00;;;13.70;99.90;;;;;;5008219;28;20034;-59
2022/06/20 07:41:31;;;;;;;18.95;11.77;;;13.50;99.90;;;;;;4988073;28;20061;-59
2022/06/20 07:44:05;;;;;;;19.73;10.32;;;13.50;99.90;;;;;;4995391;28;20034;-59
2022/06/20 07:46:39;;;;;;;13.70;10.18;;;13.40;99.90;;;;;;5004654;28;20101;-59
2022/06/20 07:49:36;;;;;;;16.40;9.32;;;13.30;99.90;;;;;;5006041;28;20040;-59
2022/06/20 07:52:17;;;;;;;12.90;8.45;;;13.30;99.90;;;;;;5023296;28;20491;-56
2022/06/20 07:54:48;;;;;;;15.27;9.98;;;13.30;99.90;;;;;;4996721;28;20030;-58
2022/06/20 07:57:19;;;;;;;15.85;9.13;;;13.30;99.90;;;;;;5000590;28;20029;-59
2022/06/20 07:59:45;;;;;;;17.95;10.95;;;13.20;99.90;;;;;;5007296;28;20030;-59
2022/06/20 08:02:25;;;;;;;18.00;9.88;;;13.20;99.90;;;;;;5007623;28;20041;-56
2022/06/20 08:04:56;;;;;;;18.70;9.63;;;13.20;99.90;;;;;;5006486;28;20515;-57
2022/06/20 08:07:30;;;;;;;20.05;10.18;;;13.20;99.90;;;;;;5008717;28;20041;-57
2022/06/20 08:10:01;;;;;;;;;;;13.20;99.90;;;;;;5002969;28;20106;-59
2022/06/20 08:12:38;;;;;;;17.27;8.65;;;13.10;99.90;;;;;;5006292;28;19928;-58
2022/06/20 08:15:23;;;;;;;14.70;8.32;;;13.10;99.90;;;;;;5004391;28;20396;-59
2022/06/20 08:17:50;;;;;;;13.80;8.07;;;13.10;99.90;;;;;;5002970;28;20022;-58
2022/06/20 08:20:17;;;;;;;14.45;8.85;;;13.10;99.90;;;;;;5005155;28;20037;-59
2022/06/20 08:23:13;;;;;;;20.05;9.23;;;13.10;99.90;;;;;;4986817;28;20372;-59
2022/06/20 08:25:48;;;;;;;14.88;9.00;;;13.10;99.90;;;;;;5006325;28;20033;-58
2022/06/20 08:28:25;;;;;;;21.05;9.63;;;13.20;99.90;;;;;;5007635;28;20076;-57
2022/06/20 08:31:06;;;;;;;17.02;8.93;;;13.30;99.90;;;;;;5009312;28;20030;-59
2022/06/20 08:34:10;;;;;;;20.48;9.50;;;13.30;99.90;;;;;;5007499;28;20099;-59
2022/06/20 08:36:56;;;;;;;16.13;10.05;;;13.40;99.90;;;;;;5009773;28;20053;-58
2022/06/20 08:39:37;;;;;;;21.35;8.80;;;13.60;99.90;;;;;;5005030;28;20034;-58
2022/06/20 08:42:24;;;;;;;16.15;8.32;;;13.60;99.90;;;;;;5007974;28;20108;-59
2022/06/20 08:45:24;;;;;;;18.85;10.25;;;13.60;99.90;;;;;;5001069;28;20201;-60
2022/06/20 08:48:14;;;;;;;14.82;8.68;;;13.60;99.90;;;;;;5009251;28;20113;-53
2022/06/20 08:50:49;;;;;;;14.88;8.20;;;13.70;99.90;;;;;;5006426;28;20021;-58
2022/06/20 08:54:08;;;;;;;13.77;8.05;;;13.70;99.90;;;;;;5001472;28;20026;-60
2022/06/20 08:56:54;;;;;;;11.93;7.25;;;13.70;99.90;;;;;;4993424;28;20037;-60
2022/06/20 08:59:39;;;;;;;16.20;7.38;;;13.80;99.90;;;;;;4987595;28;20551;-58
2022/06/20 09:02:20;;;;;;;15.32;7.40;;;13.90;99.90;;;;;;4992507;28;20046;-59
2022/06/20 09:05:17;;;;;;;15.02;7.50;;;14.00;99.90;;;;;;5012093;28;20034;-58
2022/06/20 09:07:54;;;;;;;12.90;6.38;;;14.10;99.90;;;;;;5003385;28;20069;-58
2022/06/20 09:10:28;;;;;;;12.18;6.88;;;14.30;99.90;;;;;;5009992;28;21810;-60
2022/06/20 09:13:02;;;;;;;13.80;7.00;;;14.40;99.90;;;;;;5006890;28;20032;-59
2022/06/20 09:15:46;;;;;;;12.30;6.20;;;14.60;99.90;;;;;;5012736;28;20034;-58
2022/06/20 09:18:52;;;;;;;12.85;7.05;;;14.80;99.90;;;;;;5011689;28;20033;-59
2022/06/20 09:21:33;;;;;;;11.85;7.13;;;15.20;99.90;;;;;;5004588;28;20380;-60
2022/06/20 09:24:21;;;;;;;8.63;5.47;;;15.40;99.90;;;;;;4978323;28;20034;-60
2022/06/20 09:26:59;;;;;;;14.55;4.50;;;15.60;99.90;;;;;;5002982;28;20029;-60
2022/06/20 09:29:42;;;;;;;7.47;4.40;;;16.10;99.90;;;;;;5011727;28;20125;-57
2022/06/20 09:32:36;;;;;;;11.93;4.82;;;16.20;99.90;;;;;;5006649;28;20183;-60
2022/06/20 09:35:25;;;;;;;12.60;4.72;;;16.30;99.90;;;;;;5006702;28;20096;-60
2022/06/20 09:38:00;;;;;;;10.93;4.60;;;16.60;99.90;;;;;;5006585;28;20040;-60
2022/06/20 09:40:55;;;;;;;10.35;4.10;;;16.90;99.90;;;;;;5001702;28;20101;-60
2022/06/20 09:43:51;;;;;;;12.77;4.18;;;17.10;99.90;;;;;;5010403;28;20522;-59
2022/06/20 09:46:33;;;;;;;8.40;4.07;;;17.20;99.90;;;;;;5001126;28;20029;-60
2022/06/20 09:49:13;;;;;;;8.07;4.00;;;17.50;99.90;;;;;;5000592;28;20419;-60
2022/06/20 09:51:58;;;;;;;6.22;3.47;;;17.80;99.90;;;;;;5013174;28;20488;-60
2022/06/20 09:54:53;;;;;;;8.88;4.15;;;17.80;99.90;;;;;;5002965;28;20065;-60
2022/06/20 09:57:42;;;;;;;8.15;3.53;;;18.20;99.90;;;;;;5012142;28;20056;-60
2022/06/20 10:00:26;;;;;;;10.18;3.55;;;18.20;99.90;;;;;;4999035;28;20017;-60
2022/06/20 10:03:04;;;;;;;7.72;3.13;;;18.30;99.90;;;;;;5000841;28;20037;-60
2022/06/20 10:05:35;;;;;;;10.98;3.85;;;18.20;99.90;;;;;;5009599;28;20033;-59
2022/06/20 10:08:20;;;;;;;14.50;3.33;;;18.20;99.90;;;;;;5012583;28;20034;-60
2022/06/20 10:11:21;;;;;;;8.18;2.83;;;17.90;99.90;;;;;;5008035;28;20488;-58
2022/06/20 10:13:51;;;;;;;7.53;3.28;;;18.20;99.90;;;;;;5003879;28;20029;-60
2022/06/20 10:16:34;;;;;;;7.40;3.67;;;18.20;99.90;;;;;;5010723;28;20061;-60
2022/06/20 10:19:17;;;;;;;13.40;3.88;;;18.40;99.90;;;;;;5011889;28;20026;-60
2022/06/20 10:22:00;;;;;;;9.20;3.37;;;18.30;99.90;;;;;;5010767;28;20053;-60
2022/06/20 10:24:52;;;;;;;12.00;2.75;;;18.00;99.90;;;;;;4984033;28;20038;-59
2022/06/20 10:27:29;;;;;;;7.30;2.88;;;18.20;99.90;;;;;;5002128;28;20029;-60
2022/06/20 10:30:04;;;;;;;10.35;3.25;;;18.10;99.90;;;;;;5009105;28;20026;-59
2022/06/20 10:32:38;;;;;;;13.77;3.55;;;18.10;99.90;;;;;;5009584;28;20037;-57
2022/06/20 10:35:17;;;;;;;10.27;3.70;;;18.00;99.90;;;;;;5008627;28;20030;-60
2022/06/20 10:38:08;;;;;;;9.75;3.30;;;18.00;99.90;;;;;;5011526;28;20113;-60
2022/06/20 10:40:45;;;;;;;6.95;3.42;;;17.70;99.90;;;;;;5009409;28;20026;-60
2022/06/20 10:43:22;;;;;;;16.48;3.85;;;17.40;99.90;;;;;;5010457;28;20042;-60
2022/06/20 10:46:16;;;;;;;9.25;3.85;;;17.20;99.90;;;;;;5010393;28;20033;-60
2022/06/20 10:49:01;;;;;;;10.70;3.47;;;17.10;99.90;;;;;;5008785;28;20018;-59
2022/06/20 10:51:44;;;;;;;13.43;4.13;;;17.00;99.90;;;;;;5010449;28;20458;-60
2022/06/20 10:54:30;;;;;;;9.80;4.05;;;16.80;99.90;;;;;;5004979;28;20027;-60
2022/06/20 10:56:58;;;;;;;8.73;3.60;;;16.80;99.90;;;;;;5001147;28;20037;-60
2022/06/20 10:59:51;;;;;;;10.68;3.40;;;16.90;99.90;;;;;;5009729;28;20029;-59
2022/06/20 11:02:39;;;;;;;6.60;3.20;;;17.00;99.90;;;;;;5009790;28;20025;-59
2022/06/20 11:05:39;;;;;;;6.65;3.03;;;17.30;99.90;;;;;;5008780;28;20033;-59
2022/06/20 11:08:42;;;;;;;6.70;2.70;;;17.90;99.90;;;;;;4997145;28;20034;-60
2022/06/20 11:11:20;;;;;;;7.53;3.05;;;18.40;99.90;;;;;;5008294;28;20408;-60
2022/06/20 11:14:03;;;;;;;10.80;3.67;;;18.60;99.90;;;;;;5009119;28;20030;-61
2022/06/20 11:16:44;;;;;;;10.30;2.83;;;18.40;99.90;;;;;;5006770;28;20034;-60
2022/06/20 11:19:23;;;;;;;11.20;3.60;;;18.50;99.90;;;;;;5006741;28;20104;-58
2022/06/20 11:22:15;;;;;;;9.35;3.08;;;18.60;99.90;;;;;;5009120;28;20033;-60
2022/06/20 11:24:54;;;;;;;10.25;2.78;;;18.80;99.90;;;;;;5004981;28;20038;-60
2022/06/20 11:27:40;;;;;;;18.35;4.32;;;18.90;99.90;;;;;;5011141;28;20045;-60
2022/06/20 11:30:07;;;;;;;9.38;3.20;;;19.00;99.90;;;;;;5009353;28;20083;-59
2022/06/20 11:32:48;;;;;;;8.18;3.25;;;18.80;99.90;;;;;;5008814;28;20053;-60
2022/06/20 11:35:30;;;;;;;10.70;3.45;;;19.00;99.90;;;;;;5010022;28;20033;-57
2022/06/20 11:38:22;;;;;;;11.52;3.42;;;19.30;99.90;;;;;;5008264;28;20045;-59
2022/06/20 11:40:57;;;;;;;15.13;4.38;;;19.00;99.90;;;;;;5009118;28;20076;-59
2022/06/20 11:43:42;;;;;;;10.90;3.90;;;18.50;99.90;;;;;;5010417;28;20047;-60
2022/06/20 11:46:28;;;;;;;14.23;3.75;;;18.40;99.90;;;;;;5009613;28;20029;-60
2022/06/20 11:49:24;;;;;;;14.07;4.85;;;18.30;99.90;;;;;;5004047;28;20030;-60
2022/06/20 11:51:55;;;;;;;8.82;4.10;;;18.10;99.90;;;;;;5005711;28;20018;-59
2022/06/20 11:54:41;;;;;;;10.30;4.05;;;18.20;99.90;;;;;;5008387;28;20041;-59
2022/06/20 11:57:27;;;;;;;12.18;4.38;;;18.30;99.90;;;;;;5008666;28;20026;-60
2022/06/20 12:00:01;;;;;;;13.40;4.93;;;18.40;99.90;;;;;;5000961;28;20080;-60
2022/06/20 12:02:48;;;;;;;13.68;4.85;;;18.50;99.90;;;;;;5006473;28;20109;-60
2022/06/20 12:05:19;;;;;;;10.35;4.15;;;18.40;99.90;;;;;;5004928;28;20032;-56
2022/06/20 12:07:45;;;;;;;8.40;4.30;;;18.10;99.90;;;;;;5009579;28;20101;-60
2022/06/20 12:10:31;;;;;;;11.65;4.47;;;17.80;99.90;;;;;;5005604;28;20104;-59
2022/06/20 12:13:19;;;;;;;18.42;5.78;;;17.70;99.90;;;;;;5006604;28;20076;-59
2022/06/20 12:16:14;;;;;;;16.77;5.30;;;17.80;99.90;;;;;;4988860;28;20453;-59
2022/06/20 12:24:33;;;;;;;12.32;4.78;;;18.70;99.90;;;;;;4989387;28;20048;-59
2022/06/20 12:26:58;;;;;;;13.13;5.53;;;19.00;99.90;;;;;;5007957;28;20055;-60
2022/06/20 12:29:27;;;;;;;19.92;5.20;;;19.00;99.90;;;;;;5004317;28;20539;-59
2022/06/20 12:31:59;;;;;;;17.50;4.78;;;19.20;99.90;;;;;;5007566;28;20021;-59
2022/06/20 12:34:46;;;;;;;11.43;4.70;;;19.30;99.90;;;;;;5006290;28;20109;-60
2022/06/20 12:37:32;;;;;;;12.18;4.45;;;19.40;99.90;;;;;;5006980;28;20395;-60
2022/06/20 12:40:04;;;;;;;10.35;5.85;;;19.40;99.90;;;;;;5003863;28;20526;-60
2022/06/20 12:42:52;;;;;;;11.50;4.55;;;19.70;99.90;;;;;;4998370;28;20052;-60
2022/06/20 12:45:33;;;;;;;11.05;4.55;;;20.10;99.90;;;;;;5003009;28;20038;-60
2022/06/20 12:48:05;;;;;;;14.82;5.03;;;20.30;99.90;;;;;;5003676;28;20041;-60
2022/06/20 12:51:09;;;;;;;14.63;5.30;;;20.50;99.90;;;;;;5006320;28;20030;-60
2022/06/20 12:53:34;;;;;;;;;;;20.70;99.90;;;;;;5007465;28;20038;-60
2022/06/20 12:56:18;;;;;;;13.98;5.43;;;20.70;99.90;;;;;;5009711;28;19920;-60
2022/06/20 12:59:17;;;;;;;11.25;5.93;;;21.10;99.90;;;;;;5001895;28;20030;-59
2022/06/20 13:02:11;;;;;;;16.58;5.85;;;20.70;99.90;;;;;;5005489;28;20511;-59
2022/06/20 13:04:55;;;;;;;15.52;5.38;;;20.70;99.90;;;;;;5002619;28;20030;-59
2022/06/20 13:07:23;;;;;;;9.65;4.68;;;21.00;99.90;;;;;;5007834;28;20041;-60
2022/06/20 13:10:23;;;;;;;12.98;5.20;;;21.30;99.90;;;;;;5006962;28;20060;-59
2022/06/20 13:13:06;;;;;;;12.65;4.97;;;20.80;98.50;;;;;;5002444;28;20022;-58
2022/06/20 13:15:38;;;;;;;;;;;20.60;99.90;;;;;;5001865;28;20029;-60
2022/06/20 13:18:19;;;;;;;14.73;6.13;;;20.40;99.90;;;;;;5000895;28;20457;-58
2022/06/20 13:21:21;;;;;;;15.60;6.35;;;20.30;99.90;;;;;;5000906;28;20126;-60
2022/06/20 13:24:25;;;;;;;14.70;5.82;;;20.10;99.90;;;;;;4985179;28;20556;-60
2022/06/20 13:27:09;;;;;;;9.95;5.43;;;20.50;99.90;;;;;;4999602;28;20029;-60
2022/06/20 13:29:42;;;;;;;10.52;5.07;;;20.80;99.90;;;;;;5001829;28;20063;-60
2022/06/20 13:32:36;;;;;;;16.30;5.53;;;20.70;99.90;;;;;;5021553;28;20029;-60
2022/06/20 13:35:21;;;;;;;16.42;5.60;;;20.70;99.90;;;;;;5005389;28;20868;-60
2022/06/20 13:37:49;;;;;;;14.38;5.70;;;20.30;99.90;;;;;;5002071;28;20022;-60
2022/06/20 13:40:30;;;;;;;14.20;5.38;;;20.00;99.90;;;;;;5001562;28;20030;-60